sensor_id;sensor_type;location;lat;lon;timestamp;P1;durP1;ratioP1;P2;durP2;ratioP2
78005;SDS011;67211;42.146;24.756;2023-07-13T00:00:31;15.60;;;9.13;;
78005;SDS011;67211;42.146;24.756;2023-07-13T00:02:57;13.00;;;8.60;;
78005;SDS011;67211;42.146;24.756;2023-07-13T00:05:23;14.77;;;8.93;;
78005;SDS011;67211;42.146;24.756;2023-07-13T00:07:50;13.02;;;10.20;;
78005;SDS011;67211;42.146;24.756;2023-07-13T00:10:16;13.35;;;9.13;;
78005;SDS011;67211;42.146;24.756;2023-07-13T00:12:42;13.82;;;9.65;;
78005;SDS011;67211;42.146;24.756;2023-07-13T00:15:12;14.88;;;10.10;;
78005;SDS011;67211;42.146;24.756;2023-07-13T00:17:41;12.18;;;8.93;;
78005;SDS011;67211;42.146;24.756;2023-07-13T00:20:09;12.77;;;9.40;;
78005;SDS011;67211;42.146;24.756;2023-07-13T00:22:36;14.43;;;9.57;;
78005;SDS011;67211;42.146;24.756;2023-07-13T00:25:01;12.55;;;9.45;;
78005;SDS011;67211;42.146;24.756;2023-07-13T00:27:27;13.07;;;9.57;;
78005;SDS011;67211;42.146;24.756;2023-07-13T00:29:54;12.95;;;9.35;;
78005;SDS011;67211;42.146;24.756;2023-07-13T00:32:20;14.75;;;9.60;;
78005;SDS011;67211;42.146;24.756;2023-07-13T00:34:45;14.82;;;10.00;;
78005;SDS011;67211;42.146;24.756;2023-07-13T00:37:11;12.70;;;9.90;;
78005;SDS011;67211;42.146;24.756;2023-07-13T00:39:36;14.93;;;9.75;;
78005;SDS011;67211;42.146;24.756;2023-07-13T00:42:02;12.07;;;8.85;;
78005;SDS011;67211;42.146;24.756;2023-07-13T00:44:28;15.15;;;9.25;;
78005;SDS011;67211;42.146;24.756;2023-07-13T00:46:54;12.55;;;9.38;;
78005;SDS011;67211;42.146;24.756;2023-07-13T00:49:21;13.32;;;9.07;;
78005;SDS011;67211;42.146;24.756;2023-07-13T00:51:49;12.20;;;8.88;;
78005;SDS011;67211;42.146;24.756;2023-07-13T00:54:19;13.32;;;8.60;;
78005;SDS011;67211;42.146;24.756;2023-07-13T00:56:48;12.15;;;9.27;;
78005;SDS011;67211;42.146;24.756;2023-07-13T00:59:15;11.73;;;9.18;;
78005;SDS011;67211;42.146;24.756;2023-07-13T01:01:42;12.18;;;8.82;;
78005;SDS011;67211;42.146;24.756;2023-07-13T01:04:08;12.15;;;8.95;;
78005;SDS011;67211;42.146;24.756;2023-07-13T01:06:34;12.27;;;10.35;;
78005;SDS011;67211;42.146;24.756;2023-07-13T01:09:01;11.05;;;8.93;;
78005;SDS011;67211;42.146;24.756;2023-07-13T01:11:26;16.27;;;8.27;;
78005;SDS011;67211;42.146;24.756;2023-07-13T01:13:52;11.23;;;7.85;;
78005;SDS011;67211;42.146;24.756;2023-07-13T01:16:29;11.32;;;7.63;;
78005;SDS011;67211;42.146;24.756;2023-07-13T01:18:56;10.23;;;7.50;;
78005;SDS011;67211;42.146;24.756;2023-07-13T01:21:26;10.30;;;7.13;;
78005;SDS011;67211;42.146;24.756;2023-07-13T01:23:52;10.10;;;8.07;;
78005;SDS011;67211;42.146;24.756;2023-07-13T01:26:17;11.30;;;8.65;;
78005;SDS011;67211;42.146;24.756;2023-07-13T01:28:43;10.43;;;7.72;;
78005;SDS011;67211;42.146;24.756;2023-07-13T01:31:08;12.23;;;7.88;;
78005;SDS011;67211;42.146;24.756;2023-07-13T01:33:36;9.20;;;7.45;;
78005;SDS011;67211;42.146;24.756;2023-07-13T01:36:02;12.00;;;7.40;;
78005;SDS011;67211;42.146;24.756;2023-07-13T01:38:27;12.32;;;7.15;;
78005;SDS011;67211;42.146;24.756;2023-07-13T01:40:54;10.60;;;8.55;;
78005;SDS011;67211;42.146;24.756;2023-07-13T01:43:19;8.70;;;6.95;;
78005;SDS011;67211;42.146;24.756;2023-07-13T01:45:45;10.48;;;7.78;;
78005;SDS011;67211;42.146;24.756;2023-07-13T01:48:11;9.13;;;7.20;;
78005;SDS011;67211;42.146;24.756;2023-07-13T01:50:37;10.52;;;8.00;;
78005;SDS011;67211;42.146;24.756;2023-07-13T01:53:03;9.88;;;8.68;;
78005;SDS011;67211;42.146;24.756;2023-07-13T01:55:29;11.60;;;7.93;;
78005;SDS011;67211;42.146;24.756;2023-07-13T01:57:55;8.68;;;7.25;;
78005;SDS011;67211;42.146;24.756;2023-07-13T02:00:20;10.13;;;7.07;;
78005;SDS011;67211;42.146;24.756;2023-07-13T02:02:46;12.48;;;7.32;;
78005;SDS011;67211;42.146;24.756;2023-07-13T02:05:12;11.27;;;7.45;;
78005;SDS011;67211;42.146;24.756;2023-07-13T02:07:38;9.95;;;7.85;;
78005;SDS011;67211;42.146;24.756;2023-07-13T02:10:04;11.27;;;7.75;;
78005;SDS011;67211;42.146;24.756;2023-07-13T02:12:31;11.35;;;7.97;;
78005;SDS011;67211;42.146;24.756;2023-07-13T02:14:56;9.18;;;7.75;;
78005;SDS011;67211;42.146;24.756;2023-07-13T02:17:21;9.77;;;7.60;;
78005;SDS011;67211;42.146;24.756;2023-07-13T02:19:47;10.90;;;8.55;;
78005;SDS011;67211;42.146;24.756;2023-07-13T02:22:12;12.07;;;7.90;;
78005;SDS011;67211;42.146;24.756;2023-07-13T02:24:38;9.82;;;7.55;;
78005;SDS011;67211;42.146;24.756;2023-07-13T02:27:03;8.88;;;7.68;;
78005;SDS011;67211;42.146;24.756;2023-07-13T02:29:29;14.95;;;8.07;;
78005;SDS011;67211;42.146;24.756;2023-07-13T02:31:55;10.73;;;8.20;;
78005;SDS011;67211;42.146;24.756;2023-07-13T02:34:20;8.98;;;7.70;;
78005;SDS011;67211;42.146;24.756;2023-07-13T02:36:45;10.93;;;8.13;;
78005;SDS011;67211;42.146;24.756;2023-07-13T02:39:11;10.32;;;8.02;;
78005;SDS011;67211;42.146;24.756;2023-07-13T02:41:37;11.15;;;8.13;;
78005;SDS011;67211;42.146;24.756;2023-07-13T02:44:03;11.05;;;8.82;;
78005;SDS011;67211;42.146;24.756;2023-07-13T02:46:32;10.55;;;7.93;;
78005;SDS011;67211;42.146;24.756;2023-07-13T02:48:58;9.80;;;7.70;;
78005;SDS011;67211;42.146;24.756;2023-07-13T02:51:23;10.90;;;7.47;;
78005;SDS011;67211;42.146;24.756;2023-07-13T02:53:49;10.60;;;8.57;;
78005;SDS011;67211;42.146;24.756;2023-07-13T02:56:15;11.55;;;8.43;;
78005;SDS011;67211;42.146;24.756;2023-07-13T02:58:40;10.10;;;7.93;;
78005;SDS011;67211;42.146;24.756;2023-07-13T03:01:07;9.73;;;7.05;;
78005;SDS011;67211;42.146;24.756;2023-07-13T03:03:33;12.90;;;8.05;;
78005;SDS011;67211;42.146;24.756;2023-07-13T03:06:02;12.63;;;8.13;;
78005;SDS011;67211;42.146;24.756;2023-07-13T03:08:28;12.32;;;7.88;;
78005;SDS011;67211;42.146;24.756;2023-07-13T03:11:07;11.35;;;8.18;;
78005;SDS011;67211;42.146;24.756;2023-07-13T03:13:37;11.77;;;7.63;;
78005;SDS011;67211;42.146;24.756;2023-07-13T03:16:03;12.55;;;8.00;;
78005;SDS011;67211;42.146;24.756;2023-07-13T03:18:29;11.70;;;7.20;;
78005;SDS011;67211;42.146;24.756;2023-07-13T03:20:54;9.18;;;7.50;;
78005;SDS011;67211;42.146;24.756;2023-07-13T03:23:20;8.88;;;7.13;;
78005;SDS011;67211;42.146;24.756;2023-07-13T03:25:46;9.02;;;7.35;;
78005;SDS011;67211;42.146;24.756;2023-07-13T03:28:11;11.13;;;7.40;;
78005;SDS011;67211;42.146;24.756;2023-07-13T03:30:37;9.25;;;7.70;;
78005;SDS011;67211;42.146;24.756;2023-07-13T03:33:03;9.35;;;7.35;;
78005;SDS011;67211;42.146;24.756;2023-07-13T03:35:28;11.13;;;6.85;;
78005;SDS011;67211;42.146;24.756;2023-07-13T03:37:54;9.82;;;8.32;;
78005;SDS011;67211;42.146;24.756;2023-07-13T03:40:19;9.45;;;7.05;;
78005;SDS011;67211;42.146;24.756;2023-07-13T03:42:45;10.57;;;8.45;;
78005;SDS011;67211;42.146;24.756;2023-07-13T03:45:10;9.73;;;7.07;;
78005;SDS011;67211;42.146;24.756;2023-07-13T03:47:36;9.00;;;7.28;;
78005;SDS011;67211;42.146;24.756;2023-07-13T03:50:01;11.02;;;6.75;;
78005;SDS011;67211;42.146;24.756;2023-07-13T03:52:27;9.95;;;7.22;;
78005;SDS011;67211;42.146;24.756;2023-07-13T03:54:53;11.38;;;7.03;;
78005;SDS011;67211;42.146;24.756;2023-07-13T03:57:18;10.50;;;7.65;;
78005;SDS011;67211;42.146;24.756;2023-07-13T03:59:44;9.07;;;6.93;;
78005;SDS011;67211;42.146;24.756;2023-07-13T04:02:09;11.10;;;7.13;;
78005;SDS011;67211;42.146;24.756;2023-07-13T04:04:35;11.23;;;6.95;;
78005;SDS011;67211;42.146;24.756;2023-07-13T04:07:00;9.63;;;7.57;;
78005;SDS011;67211;42.146;24.756;2023-07-13T04:09:25;9.90;;;7.57;;
78005;SDS011;67211;42.146;24.756;2023-07-13T04:11:51;11.20;;;7.78;;
78005;SDS011;67211;42.146;24.756;2023-07-13T04:14:16;12.55;;;8.00;;
78005;SDS011;67211;42.146;24.756;2023-07-13T04:16:42;10.73;;;7.63;;
78005;SDS011;67211;42.146;24.756;2023-07-13T04:19:08;17.08;;;8.27;;
78005;SDS011;67211;42.146;24.756;2023-07-13T04:21:35;9.27;;;7.90;;
78005;SDS011;67211;42.146;24.756;2023-07-13T04:24:01;10.32;;;7.05;;
78005;SDS011;67211;42.146;24.756;2023-07-13T04:26:27;12.30;;;8.80;;
78005;SDS011;67211;42.146;24.756;2023-07-13T04:28:53;11.57;;;9.35;;
78005;SDS011;67211;42.146;24.756;2023-07-13T04:31:19;12.38;;;8.25;;
78005;SDS011;67211;42.146;24.756;2023-07-13T04:33:45;11.75;;;8.38;;
78005;SDS011;67211;42.146;24.756;2023-07-13T04:36:10;12.93;;;9.27;;
78005;SDS011;67211;42.146;24.756;2023-07-13T04:38:36;11.57;;;8.60;;
78005;SDS011;67211;42.146;24.756;2023-07-13T04:41:03;12.75;;;8.43;;
78005;SDS011;67211;42.146;24.756;2023-07-13T04:43:30;12.60;;;8.43;;
78005;SDS011;67211;42.146;24.756;2023-07-13T04:45:55;11.80;;;8.05;;
78005;SDS011;67211;42.146;24.756;2023-07-13T04:48:21;8.00;;;5.25;;
78005;SDS011;67211;42.146;24.756;2023-07-13T04:50:47;9.02;;;5.53;;
78005;SDS011;67211;42.146;24.756;2023-07-13T04:53:13;8.80;;;6.00;;
78005;SDS011;67211;42.146;24.756;2023-07-13T04:55:39;11.38;;;6.78;;
78005;SDS011;67211;42.146;24.756;2023-07-13T04:58:05;10.10;;;7.40;;
78005;SDS011;67211;42.146;24.756;2023-07-13T05:00:31;9.32;;;6.55;;
78005;SDS011;67211;42.146;24.756;2023-07-13T05:02:57;13.48;;;9.95;;
78005;SDS011;67211;42.146;24.756;2023-07-13T05:05:23;12.10;;;8.05;;
78005;SDS011;67211;42.146;24.756;2023-07-13T05:07:49;11.60;;;8.57;;
78005;SDS011;67211;42.146;24.756;2023-07-13T05:10:15;13.38;;;8.70;;
78005;SDS011;67211;42.146;24.756;2023-07-13T05:12:40;14.15;;;9.43;;
78005;SDS011;67211;42.146;24.756;2023-07-13T05:15:06;14.50;;;8.88;;
78005;SDS011;67211;42.146;24.756;2023-07-13T05:17:32;11.60;;;8.60;;
78005;SDS011;67211;42.146;24.756;2023-07-13T05:19:58;12.55;;;9.18;;
78005;SDS011;67211;42.146;24.756;2023-07-13T05:22:23;11.90;;;9.13;;
78005;SDS011;67211;42.146;24.756;2023-07-13T05:24:48;13.75;;;10.25;;
78005;SDS011;67211;42.146;24.756;2023-07-13T05:27:14;13.25;;;9.73;;
78005;SDS011;67211;42.146;24.756;2023-07-13T05:29:40;15.68;;;10.13;;
78005;SDS011;67211;42.146;24.756;2023-07-13T05:32:05;12.68;;;8.90;;
78005;SDS011;67211;42.146;24.756;2023-07-13T05:34:31;13.18;;;9.60;;
78005;SDS011;67211;42.146;24.756;2023-07-13T05:36:57;13.05;;;8.90;;
78005;SDS011;67211;42.146;24.756;2023-07-13T05:39:22;12.35;;;8.60;;
78005;SDS011;67211;42.146;24.756;2023-07-13T05:41:48;15.73;;;9.38;;
78005;SDS011;67211;42.146;24.756;2023-07-13T05:44:13;11.70;;;8.45;;
78005;SDS011;67211;42.146;24.756;2023-07-13T05:46:39;14.55;;;9.02;;
78005;SDS011;67211;42.146;24.756;2023-07-13T05:49:04;14.68;;;9.63;;
78005;SDS011;67211;42.146;24.756;2023-07-13T05:51:30;14.00;;;9.63;;
78005;SDS011;67211;42.146;24.756;2023-07-13T05:53:55;13.05;;;9.52;;
78005;SDS011;67211;42.146;24.756;2023-07-13T05:56:20;11.25;;;8.25;;
78005;SDS011;67211;42.146;24.756;2023-07-13T05:58:47;14.23;;;9.20;;
78005;SDS011;67211;42.146;24.756;2023-07-13T06:01:13;13.10;;;9.30;;
78005;SDS011;67211;42.146;24.756;2023-07-13T06:03:39;12.75;;;8.30;;
78005;SDS011;67211;42.146;24.756;2023-07-13T06:06:05;13.45;;;9.00;;
78005;SDS011;67211;42.146;24.756;2023-07-13T06:08:31;15.55;;;9.40;;
78005;SDS011;67211;42.146;24.756;2023-07-13T06:11:11;14.30;;;9.40;;
78005;SDS011;67211;42.146;24.756;2023-07-13T06:13:42;11.13;;;8.88;;
78005;SDS011;67211;42.146;24.756;2023-07-13T06:16:07;14.45;;;9.52;;
78005;SDS011;67211;42.146;24.756;2023-07-13T06:18:34;12.20;;;9.05;;
78005;SDS011;67211;42.146;24.756;2023-07-13T06:20:59;11.32;;;9.25;;
78005;SDS011;67211;42.146;24.756;2023-07-13T06:23:25;16.00;;;9.13;;
78005;SDS011;67211;42.146;24.756;2023-07-13T06:25:50;12.43;;;9.13;;
78005;SDS011;67211;42.146;24.756;2023-07-13T06:28:16;12.65;;;8.95;;
78005;SDS011;67211;42.146;24.756;2023-07-13T06:30:41;11.07;;;8.77;;
78005;SDS011;67211;42.146;24.756;2023-07-13T06:33:07;11.23;;;9.88;;
78005;SDS011;67211;42.146;24.756;2023-07-13T06:35:32;11.10;;;8.77;;
78005;SDS011;67211;42.146;24.756;2023-07-13T06:37:58;13.32;;;9.70;;
78005;SDS011;67211;42.146;24.756;2023-07-13T06:40:24;11.60;;;8.57;;
78005;SDS011;67211;42.146;24.756;2023-07-13T06:42:49;12.25;;;9.23;;
78005;SDS011;67211;42.146;24.756;2023-07-13T06:45:15;10.70;;;9.15;;
78005;SDS011;67211;42.146;24.756;2023-07-13T06:47:40;11.90;;;8.82;;
78005;SDS011;67211;42.146;24.756;2023-07-13T06:50:06;12.82;;;9.35;;
78005;SDS011;67211;42.146;24.756;2023-07-13T06:52:32;11.60;;;9.27;;
78005;SDS011;67211;42.146;24.756;2023-07-13T06:54:57;12.32;;;8.32;;
78005;SDS011;67211;42.146;24.756;2023-07-13T06:57:23;11.82;;;8.80;;
78005;SDS011;67211;42.146;24.756;2023-07-13T06:59:48;12.32;;;8.80;;
78005;SDS011;67211;42.146;24.756;2023-07-13T07:02:13;10.88;;;8.70;;
78005;SDS011;67211;42.146;24.756;2023-07-13T07:04:39;18.13;;;9.40;;
78005;SDS011;67211;42.146;24.756;2023-07-13T07:07:04;10.10;;;7.93;;
78005;SDS011;67211;42.146;24.756;2023-07-13T07:09:29;10.77;;;9.15;;
78005;SDS011;67211;42.146;24.756;2023-07-13T07:11:56;10.73;;;8.73;;
78005;SDS011;67211;42.146;24.756;2023-07-13T07:14:22;11.65;;;8.85;;
78005;SDS011;67211;42.146;24.756;2023-07-13T07:16:47;16.45;;;8.95;;
78005;SDS011;67211;42.146;24.756;2023-07-13T07:19:13;12.85;;;8.88;;
78005;SDS011;67211;42.146;24.756;2023-07-13T07:21:38;11.77;;;8.60;;
78005;SDS011;67211;42.146;24.756;2023-07-13T07:24:04;11.90;;;8.80;;
78005;SDS011;67211;42.146;24.756;2023-07-13T07:26:30;13.60;;;9.23;;
78005;SDS011;67211;42.146;24.756;2023-07-13T07:28:55;11.57;;;8.65;;
78005;SDS011;67211;42.146;24.756;2023-07-13T07:31:21;13.52;;;9.18;;
78005;SDS011;67211;42.146;24.756;2023-07-13T07:33:46;12.10;;;9.10;;
78005;SDS011;67211;42.146;24.756;2023-07-13T07:36:12;11.43;;;8.93;;
78005;SDS011;67211;42.146;24.756;2023-07-13T07:38:37;10.27;;;7.88;;
78005;SDS011;67211;42.146;24.756;2023-07-13T07:41:05;11.10;;;8.75;;
78005;SDS011;67211;42.146;24.756;2023-07-13T07:43:30;10.82;;;8.25;;
78005;SDS011;67211;42.146;24.756;2023-07-13T07:45:56;9.95;;;8.27;;
78005;SDS011;67211;42.146;24.756;2023-07-13T07:48:22;10.60;;;8.13;;
78005;SDS011;67211;42.146;24.756;2023-07-13T07:50:48;12.55;;;8.02;;
78005;SDS011;67211;42.146;24.756;2023-07-13T07:53:13;10.45;;;8.57;;
78005;SDS011;67211;42.146;24.756;2023-07-13T07:55:39;12.85;;;10.05;;
78005;SDS011;67211;42.146;24.756;2023-07-13T07:58:04;11.75;;;9.80;;
78005;SDS011;67211;42.146;24.756;2023-07-13T08:00:30;11.23;;;8.55;;
78005;SDS011;67211;42.146;24.756;2023-07-13T08:02:57;10.35;;;8.20;;
78005;SDS011;67211;42.146;24.756;2023-07-13T08:05:23;12.02;;;8.15;;
78005;SDS011;67211;42.146;24.756;2023-07-13T08:07:49;11.82;;;8.52;;
78005;SDS011;67211;42.146;24.756;2023-07-13T08:10:15;11.10;;;8.35;;
78005;SDS011;67211;42.146;24.756;2023-07-13T08:12:40;11.30;;;8.00;;
78005;SDS011;67211;42.146;24.756;2023-07-13T08:15:07;11.45;;;9.07;;
78005;SDS011;67211;42.146;24.756;2023-07-13T08:17:36;10.40;;;8.45;;
78005;SDS011;67211;42.146;24.756;2023-07-13T08:20:01;10.65;;;8.13;;
78005;SDS011;67211;42.146;24.756;2023-07-13T08:22:27;11.45;;;8.13;;
78005;SDS011;67211;42.146;24.756;2023-07-13T08:24:53;11.52;;;8.30;;
78005;SDS011;67211;42.146;24.756;2023-07-13T08:27:24;8.45;;;7.50;;
78005;SDS011;67211;42.146;24.756;2023-07-13T08:29:50;9.68;;;8.02;;
78005;SDS011;67211;42.146;24.756;2023-07-13T08:32:20;12.25;;;8.27;;
78005;SDS011;67211;42.146;24.756;2023-07-13T08:34:46;10.82;;;7.80;;
78005;SDS011;67211;42.146;24.756;2023-07-13T08:37:12;11.88;;;8.50;;
78005;SDS011;67211;42.146;24.756;2023-07-13T08:39:38;11.32;;;8.45;;
78005;SDS011;67211;42.146;24.756;2023-07-13T08:47:00;11.25;;;9.18;;
78005;SDS011;67211;42.146;24.756;2023-07-13T08:49:26;11.90;;;8.13;;
78005;SDS011;67211;42.146;24.756;2023-07-13T08:52:07;13.93;;;11.50;;
78005;SDS011;67211;42.146;24.756;2023-07-13T08:54:42;11.85;;;7.75;;
78005;SDS011;67211;42.146;24.756;2023-07-13T08:57:18;15.20;;;10.48;;
78005;SDS011;67211;42.146;24.756;2023-07-13T08:59:45;11.93;;;9.45;;
78005;SDS011;67211;42.146;24.756;2023-07-13T09:02:25;9.93;;;8.45;;
78005;SDS011;67211;42.146;24.756;2023-07-13T09:05:02;11.13;;;9.85;;
78005;SDS011;67211;42.146;24.756;2023-07-13T09:13:16;9.48;;;7.93;;
78005;SDS011;67211;42.146;24.756;2023-07-13T09:15:46;11.70;;;7.60;;
78005;SDS011;67211;42.146;24.756;2023-07-13T09:20:48;10.75;;;6.70;;
78005;SDS011;67211;42.146;24.756;2023-07-13T09:23:17;13.10;;;6.88;;
78005;SDS011;67211;42.146;24.756;2023-07-13T09:25:45;9.73;;;7.30;;
78005;SDS011;67211;42.146;24.756;2023-07-13T09:28:47;11.43;;;7.60;;
78005;SDS011;67211;42.146;24.756;2023-07-13T09:33:35;8.85;;;7.50;;
78005;SDS011;67211;42.146;24.756;2023-07-13T09:36:00;10.38;;;6.68;;
78005;SDS011;67211;42.146;24.756;2023-07-13T09:38:27;11.57;;;7.50;;
78005;SDS011;67211;42.146;24.756;2023-07-13T09:43:31;8.57;;;6.80;;
78005;SDS011;67211;42.146;24.756;2023-07-13T09:45:56;9.80;;;6.85;;
78005;SDS011;67211;42.146;24.756;2023-07-13T09:48:22;10.30;;;6.40;;
78005;SDS011;67211;42.146;24.756;2023-07-13T09:50:49;9.73;;;6.90;;
78005;SDS011;67211;42.146;24.756;2023-07-13T09:53:20;8.88;;;6.90;;
78005;SDS011;67211;42.146;24.756;2023-07-13T09:55:46;9.85;;;7.28;;
78005;SDS011;67211;42.146;24.756;2023-07-13T10:03:31;8.40;;;6.43;;
78005;SDS011;67211;42.146;24.756;2023-07-13T10:06:18;12.82;;;8.23;;
78005;SDS011;67211;42.146;24.756;2023-07-13T10:08:46;10.55;;;8.23;;
78005;SDS011;67211;42.146;24.756;2023-07-13T10:11:14;12.13;;;8.18;;
78005;SDS011;67211;42.146;24.756;2023-07-13T10:13:50;9.55;;;7.25;;
78005;SDS011;67211;42.146;24.756;2023-07-13T10:16:28;10.75;;;6.78;;
78005;SDS011;67211;42.146;24.756;2023-07-13T10:18:59;10.60;;;6.97;;
78005;SDS011;67211;42.146;24.756;2023-07-13T10:21:48;8.63;;;6.10;;
78005;SDS011;67211;42.146;24.756;2023-07-13T10:24:19;10.60;;;6.10;;
78005;SDS011;67211;42.146;24.756;2023-07-13T10:26:50;6.90;;;5.65;;
78005;SDS011;67211;42.146;24.756;2023-07-13T10:29:20;7.93;;;6.35;;
78005;SDS011;67211;42.146;24.756;2023-07-13T10:31:47;8.32;;;5.75;;
78005;SDS011;67211;42.146;24.756;2023-07-13T10:34:13;7.93;;;5.57;;
78005;SDS011;67211;42.146;24.756;2023-07-13T10:36:40;8.63;;;5.50;;
78005;SDS011;67211;42.146;24.756;2023-07-13T10:39:17;8.25;;;5.35;;
78005;SDS011;67211;42.146;24.756;2023-07-13T10:41:44;8.65;;;4.95;;
78005;SDS011;67211;42.146;24.756;2023-07-13T10:44:17;7.88;;;5.22;;
78005;SDS011;67211;42.146;24.756;2023-07-13T10:46:46;7.93;;;4.82;;
78005;SDS011;67211;42.146;24.756;2023-07-13T10:49:11;8.77;;;5.47;;
78005;SDS011;67211;42.146;24.756;2023-07-13T10:51:37;8.27;;;5.68;;
78005;SDS011;67211;42.146;24.756;2023-07-13T10:54:16;8.93;;;5.07;;
78005;SDS011;67211;42.146;24.756;2023-07-13T10:59:38;8.30;;;5.93;;
78005;SDS011;67211;42.146;24.756;2023-07-13T11:02:15;7.65;;;5.10;;
78005;SDS011;67211;42.146;24.756;2023-07-13T11:04:52;8.43;;;5.10;;
78005;SDS011;67211;42.146;24.756;2023-07-13T11:07:23;6.40;;;4.72;;
78005;SDS011;67211;42.146;24.756;2023-07-13T11:10:00;6.68;;;4.90;;
78005;SDS011;67211;42.146;24.756;2023-07-13T11:15:30;7.05;;;4.10;;
78005;SDS011;67211;42.146;24.756;2023-07-13T11:18:19;9.95;;;5.07;;
78005;SDS011;67211;42.146;24.756;2023-07-13T11:20:46;7.63;;;4.32;;
78005;SDS011;67211;42.146;24.756;2023-07-13T11:25:41;8.07;;;4.35;;
78005;SDS011;67211;42.146;24.756;2023-07-13T11:30:39;6.53;;;4.40;;
78005;SDS011;67211;42.146;24.756;2023-07-13T11:35:51;8.82;;;4.57;;
78005;SDS011;67211;42.146;24.756;2023-07-13T11:38:19;8.73;;;4.55;;
78005;SDS011;67211;42.146;24.756;2023-07-13T11:40:47;7.03;;;4.20;;
78005;SDS011;67211;42.146;24.756;2023-07-13T11:43:15;10.60;;;4.38;;
78005;SDS011;67211;42.146;24.756;2023-07-13T11:45:41;7.20;;;4.60;;
78005;SDS011;67211;42.146;24.756;2023-07-13T11:48:20;5.65;;;4.45;;
78005;SDS011;67211;42.146;24.756;2023-07-13T11:50:55;15.48;;;4.93;;
78005;SDS011;67211;42.146;24.756;2023-07-13T11:53:23;6.97;;;4.30;;
78005;SDS011;67211;42.146;24.756;2023-07-13T11:55:53;8.88;;;4.32;;
78005;SDS011;67211;42.146;24.756;2023-07-13T11:58:19;6.05;;;4.07;;
78005;SDS011;67211;42.146;24.756;2023-07-13T12:00:48;8.15;;;4.10;;
78005;SDS011;67211;42.146;24.756;2023-07-13T12:03:14;8.88;;;4.72;;
78005;SDS011;67211;42.146;24.756;2023-07-13T12:08:23;10.10;;;4.53;;
78005;SDS011;67211;42.146;24.756;2023-07-13T12:10:55;9.60;;;5.03;;
78005;SDS011;67211;42.146;24.756;2023-07-13T12:13:21;6.47;;;4.15;;
78005;SDS011;67211;42.146;24.756;2023-07-13T12:15:47;8.57;;;5.07;;
78005;SDS011;67211;42.146;24.756;2023-07-13T12:18:18;7.57;;;4.53;;
78005;SDS011;67211;42.146;24.756;2023-07-13T12:20:45;7.97;;;4.50;;
78005;SDS011;67211;42.146;24.756;2023-07-13T12:23:29;7.30;;;4.55;;
78005;SDS011;67211;42.146;24.756;2023-07-13T12:25:56;7.38;;;4.68;;
78005;SDS011;67211;42.146;24.756;2023-07-13T12:28:31;7.10;;;4.50;;
78005;SDS011;67211;42.146;24.756;2023-07-13T12:31:04;10.43;;;4.60;;
78005;SDS011;67211;42.146;24.756;2023-07-13T12:33:32;8.27;;;5.00;;
78005;SDS011;67211;42.146;24.756;2023-07-13T12:36:02;9.75;;;5.68;;
78005;SDS011;67211;42.146;24.756;2023-07-13T12:38:30;7.43;;;6.15;;
78005;SDS011;67211;42.146;24.756;2023-07-13T12:40:55;10.00;;;5.07;;
78005;SDS011;67211;42.146;24.756;2023-07-13T12:43:22;10.75;;;5.85;;
78005;SDS011;67211;42.146;24.756;2023-07-13T12:45:54;8.77;;;4.82;;
78005;SDS011;67211;42.146;24.756;2023-07-13T12:48:25;8.70;;;5.00;;
78005;SDS011;67211;42.146;24.756;2023-07-13T12:50:51;7.78;;;5.32;;
78005;SDS011;67211;42.146;24.756;2023-07-13T12:53:20;8.68;;;5.45;;
78005;SDS011;67211;42.146;24.756;2023-07-13T12:55:54;10.23;;;5.88;;
78005;SDS011;67211;42.146;24.756;2023-07-13T12:58:28;7.97;;;5.13;;
78005;SDS011;67211;42.146;24.756;2023-07-13T13:01:02;13.20;;;6.65;;
78005;SDS011;67211;42.146;24.756;2023-07-13T13:03:32;8.43;;;5.50;;
78005;SDS011;67211;42.146;24.756;2023-07-13T13:06:03;7.93;;;4.85;;
78005;SDS011;67211;42.146;24.756;2023-07-13T13:08:41;8.25;;;5.40;;
78005;SDS011;67211;42.146;24.756;2023-07-13T13:11:08;9.40;;;4.78;;
78005;SDS011;67211;42.146;24.756;2023-07-13T13:13:34;8.88;;;5.07;;
78005;SDS011;67211;42.146;24.756;2023-07-13T13:16:08;8.23;;;4.78;;
78005;SDS011;67211;42.146;24.756;2023-07-13T13:18:36;9.38;;;4.70;;
78005;SDS011;67211;42.146;24.756;2023-07-13T13:21:01;8.98;;;5.47;;
78005;SDS011;67211;42.146;24.756;2023-07-13T13:23:28;11.02;;;5.35;;
78005;SDS011;67211;42.146;24.756;2023-07-13T13:25:53;7.90;;;4.95;;
78005;SDS011;67211;42.146;24.756;2023-07-13T13:28:19;8.77;;;4.63;;
78005;SDS011;67211;42.146;24.756;2023-07-13T13:30:46;7.75;;;5.00;;
78005;SDS011;67211;42.146;24.756;2023-07-13T13:33:15;9.95;;;4.63;;
78005;SDS011;67211;42.146;24.756;2023-07-13T13:35:42;9.75;;;5.25;;
78005;SDS011;67211;42.146;24.756;2023-07-13T13:38:15;9.77;;;5.07;;
78005;SDS011;67211;42.146;24.756;2023-07-13T13:40:43;9.10;;;4.40;;
78005;SDS011;67211;42.146;24.756;2023-07-13T13:43:21;7.72;;;5.30;;
78005;SDS011;67211;42.146;24.756;2023-07-13T13:45:51;11.18;;;5.13;;
78005;SDS011;67211;42.146;24.756;2023-07-13T13:48:18;7.65;;;5.10;;
78005;SDS011;67211;42.146;24.756;2023-07-13T13:50:47;8.45;;;4.53;;
78005;SDS011;67211;42.146;24.756;2023-07-13T13:53:12;9.15;;;5.05;;
78005;SDS011;67211;42.146;24.756;2023-07-13T13:55:38;9.10;;;5.63;;
78005;SDS011;67211;42.146;24.756;2023-07-13T13:58:06;8.23;;;5.18;;
78005;SDS011;67211;42.146;24.756;2023-07-13T14:00:35;9.48;;;4.63;;
78005;SDS011;67211;42.146;24.756;2023-07-13T14:03:02;7.93;;;5.13;;
78005;SDS011;67211;42.146;24.756;2023-07-13T14:05:27;8.50;;;4.43;;
78005;SDS011;67211;42.146;24.756;2023-07-13T14:07:55;7.72;;;5.15;;
78005;SDS011;67211;42.146;24.756;2023-07-13T14:10:21;9.52;;;5.35;;
78005;SDS011;67211;42.146;24.756;2023-07-13T14:12:48;8.88;;;5.45;;
78005;SDS011;67211;42.146;24.756;2023-07-13T14:15:18;14.32;;;5.90;;
78005;SDS011;67211;42.146;24.756;2023-07-13T14:17:46;11.38;;;5.38;;
78005;SDS011;67211;42.146;24.756;2023-07-13T14:20:14;8.63;;;4.88;;
78005;SDS011;67211;42.146;24.756;2023-07-13T14:22:40;7.88;;;5.10;;
78005;SDS011;67211;42.146;24.756;2023-07-13T14:25:10;10.93;;;5.65;;
78005;SDS011;67211;42.146;24.756;2023-07-13T14:27:36;9.77;;;4.72;;
78005;SDS011;67211;42.146;24.756;2023-07-13T14:30:01;11.07;;;4.95;;
78005;SDS011;67211;42.146;24.756;2023-07-13T14:32:27;12.27;;;5.25;;
78005;SDS011;67211;42.146;24.756;2023-07-13T14:34:52;8.68;;;5.43;;
78005;SDS011;67211;42.146;24.756;2023-07-13T14:37:18;10.43;;;6.13;;
78005;SDS011;67211;42.146;24.756;2023-07-13T14:39:44;8.38;;;4.85;;
78005;SDS011;67211;42.146;24.756;2023-07-13T14:42:10;9.60;;;5.45;;
78005;SDS011;67211;42.146;24.756;2023-07-13T14:44:35;9.77;;;6.72;;
78005;SDS011;67211;42.146;24.756;2023-07-13T14:47:03;8.57;;;5.35;;
78005;SDS011;67211;42.146;24.756;2023-07-13T14:49:40;10.60;;;6.25;;
78005;SDS011;67211;42.146;24.756;2023-07-13T14:52:14;9.00;;;4.95;;
78005;SDS011;67211;42.146;24.756;2023-07-13T14:54:41;9.25;;;5.05;;
78005;SDS011;67211;42.146;24.756;2023-07-13T14:57:12;8.45;;;5.00;;
78005;SDS011;67211;42.146;24.756;2023-07-13T14:59:38;11.35;;;5.90;;
78005;SDS011;67211;42.146;24.756;2023-07-13T15:04:38;9.57;;;5.60;;
78005;SDS011;67211;42.146;24.756;2023-07-13T15:07:04;13.77;;;5.70;;
78005;SDS011;67211;42.146;24.756;2023-07-13T15:09:29;9.15;;;5.10;;